Marion, OH (43302)

8:17 PM EST on December 17, 2014 (GMT -0500)
Neidhart Rd. South of Southern Estates | Change Station
CLOSE
Current Station
Personal Weather Station
Location: Marion, OH
Elevation: 968 ft
Nearby Weather Stations

Elev 968 ft 40.53 °N, 83.09 °W | Updated 4 minutes ago

Overcast
Overcast
26.1 °F
Feels Like 22 °F
N
3.8
Wind Variable Wind from WSW

Today
High -- | Low -- °F
--% Chance of Precip.
Yesterday
High -- | Low -- °F
Precip. -- in
7:50 AM 5:07 PM
Waning Crescent, 18% visible
Pressure 30.24 in
Visibility 7.0 miles
Clouds Few 1600 ft
Overcast 2200 ft
Windchill 22 °F
Dew Point 21 °F
Humidity 80%
Rainfall 0.00 in
Snow Depth Not available.
UV 0 out of 12
Pollen .10 out of 12
Air Quality Not available.
Flu Activity Not available.
METAR KMNN 180053Z AUTO 28014G20KT 7SM FEW016 OVC022 M03/M07 A3020 RMK AO2 SLP238 T10281067 TSNO

More Conditions Fewer Conditions

Pressure 30.24 in
Visibility 7.0 miles
Clouds Few 1600 ft
Overcast 2200 ft
Windchill 22 °F
Dew Point 21 °F
Humidity 80%
Rainfall 0.00 in
Snow Depth Not available.
UV 0 out of 12
Pollen .10 out of 12
Air Quality Not available.
Flu Activity Not available.
METAR KMNN 180053Z AUTO 28014G20KT 7SM FEW016 OVC022 M03/M07 A3020 RMK AO2 SLP238 T10281067 TSNO

More Conditions Fewer Conditions

10-Day Weather Forecast

Almanac

Astronomy

Dec. 17, 2014 Rise Set
Actual Time
Civil Twilight
Nautical Twilight
Astronomical Twilight
Moon
Length of Visible Light
Length of Day
Tomorrow will be .
, % of the Moon is Illuminated

Today's Extremes

State Highs State Lows

Community

WunderPhotos

Upload Photos

1,778,843 photos uploaded!

WunderBlogs® & News

Nearby

Air Quality

  Air Quality AQ Index Pollutant
Not available.

Snow Depth

Station Depth Elevation

Earthquake Activity

City Distance Mag. Time & Date
Minimum magnitude displayed is 2.5.

Coastal Water Temperatures

Place Temperature

Nearby Weather Stations